Time;durP1;ratioP1;P1;durP2;ratioP2;P2;SDS_P1;SDS_P2;PMS_P1;PMS_P2;Temp;Humidity;BMP_temperature;BMP_pressure;BME280_temperature;BME280_humidity;BME280_pressure;Samples;Min_cycle;Max_cycle;Signal;HPM_P1;HPM_P2
2023/08/15 00:02:38;;;;;;;13.07;8.98;;;;;;;-140.66;100.00;55571.53;5135655;27;20019;-71
2023/08/15 00:06:22;;;;;;;13.90;9.27;;;;;;;-140.66;100.00;55571.53;5136336;27;20055;-72
2023/08/15 00:10:07;;;;;;;13.85;8.75;;;;;;;-140.66;100.00;55571.53;5135799;27;20113;-71
2023/08/15 00:13:55;;;;;;;11.45;8.95;;;;;;;-140.66;100.00;55571.53;5134686;27;20023;-71
2023/08/15 00:17:39;;;;;;;12.52;8.73;;;;;;;-140.66;100.00;55571.53;5145175;27;20128;-71
2023/08/15 00:21:23;;;;;;;12.60;9.63;;;;;;;-140.66;100.00;55571.53;5135399;27;20103;-71
2023/08/15 00:25:08;;;;;;;23.10;9.90;;;;;;;-140.66;100.00;55571.53;5135706;27;20030;-72
2023/08/15 00:28:52;;;;;;;14.18;10.02;;;;;;;-140.66;100.00;55571.53;5135535;27;20027;-72
2023/08/15 00:32:36;;;;;;;12.30;9.10;;;;;;;-140.66;100.00;55571.53;5136575;27;20467;-72
2023/08/15 00:36:20;;;;;;;15.60;9.40;;;;;;;-140.66;100.00;55571.53;5135356;27;20027;-72
2023/08/15 00:40:05;;;;;;;15.90;9.38;;;;;;;-140.66;100.00;55571.53;5135128;27;20106;-71
2023/08/15 00:43:49;;;;;;;13.93;9.32;;;;;;;-140.66;100.00;55571.53;5135383;27;20109;-71
2023/08/15 00:47:36;;;;;;;15.38;9.60;;;;;;;-140.66;100.00;55571.53;5136136;27;20050;-70
2023/08/15 00:51:20;;;;;;;12.63;9.32;;;;;;;-140.66;100.00;55571.53;5135803;27;20334;-70
2023/08/15 00:55:06;;;;;;;13.13;9.52;;;;;;;-140.66;100.00;55571.53;5134915;27;20076;-71
2023/08/15 00:58:50;;;;;;;13.07;8.80;;;;;;;-140.66;100.00;55571.53;5134130;27;20026;-71
2023/08/15 01:02:35;;;;;;;12.00;9.52;;;;;;;-140.66;100.00;55571.53;5134313;27;20055;-72
2023/08/15 01:06:19;;;;;;;12.10;9.38;;;;;;;-140.66;100.00;55571.53;5135320;27;20045;-72
2023/08/15 01:10:04;;;;;;;14.23;9.75;;;;;;;-140.66;100.00;55571.53;5134847;27;20023;-72
2023/08/15 01:14:05;;;;;;;14.38;9.40;;;;;;;-140.66;100.00;55571.53;5133257;27;20027;-72
2023/08/15 01:17:56;;;;;;;13.52;9.20;;;;;;;-140.66;100.00;55571.53;5134866;27;20031;-72
2023/08/15 01:21:43;;;;;;;16.33;9.23;;;;;;;-140.66;100.00;55571.53;5134463;27;20031;-71
2023/08/15 01:25:28;;;;;;;15.80;9.10;;;;;;;-140.66;100.00;55571.53;5135280;27;20115;-72
2023/08/15 01:29:13;;;;;;;13.20;8.65;;;;;;;-140.66;100.00;55571.53;5134247;27;20452;-72
2023/08/15 01:33:12;;;;;;;11.75;8.50;;;;;;;-140.66;100.00;55571.53;5134786;27;20369;-72
2023/08/15 01:37:02;;;;;;;13.88;8.77;;;;;;;-140.66;100.00;55571.53;5134092;28;20441;-70
2023/08/15 01:40:50;;;;;;;11.70;8.50;;;;;;;-140.66;100.00;55571.53;5138341;27;20105;-71
2023/08/15 01:44:35;;;;;;;13.20;8.63;;;;;;;-140.66;100.00;55571.53;5137896;27;20019;-72
2023/08/15 01:48:19;;;;;;;11.38;8.95;;;;;;;-140.66;100.00;55571.53;5145840;27;20384;-74
2023/08/15 01:52:03;;;;;;;18.00;9.13;;;;;;;-140.66;100.00;55571.53;5151972;27;20043;-72
2023/08/15 01:55:48;;;;;;;11.68;9.35;;;;;;;-140.66;100.00;55571.53;5151304;27;20023;-74
2023/08/15 01:59:32;;;;;;;16.65;9.20;;;;;;;-140.66;100.00;55571.53;5153242;27;20479;-71
2023/08/15 02:03:16;;;;;;;14.45;8.93;;;;;;;-140.66;100.00;55571.53;5152414;27;20334;-72
2023/08/15 02:07:00;;;;;;;11.68;8.60;;;;;;;-140.66;100.00;55571.53;5149832;27;20056;-71
2023/08/15 02:10:44;;;;;;;12.27;8.88;;;;;;;-140.66;100.00;55571.53;5150688;27;20092;-72
2023/08/15 02:14:29;;;;;;;11.50;8.43;;;;;;;-140.66;100.00;55571.53;5148631;27;20054;-70
2023/08/15 02:18:13;;;;;;;10.30;8.48;;;;;;;-140.66;100.00;55571.53;5148053;27;20038;-70
2023/08/15 02:21:58;;;;;;;11.10;8.10;;;;;;;-140.66;100.00;55571.53;5150799;27;20019;-72
2023/08/15 02:25:42;;;;;;;13.05;8.30;;;;;;;-140.66;100.00;55571.53;5140015;27;20106;-71
2023/08/15 02:29:27;;;;;;;11.52;8.48;;;;;;;-140.66;100.00;55571.53;5139155;27;20031;-71
2023/08/15 02:33:11;;;;;;;11.85;8.75;;;;;;;-140.66;100.00;55571.53;5142011;27;20065;-73
2023/08/15 02:37:01;;;;;;;13.05;8.90;;;;;;;-140.66;100.00;55571.53;5142977;27;20437;-72
2023/08/15 02:40:45;;;;;;;13.02;9.00;;;;;;;-140.66;100.00;55571.53;5141665;27;20038;-71
2023/08/15 02:44:29;;;;;;;17.13;9.27;;;;;;;-140.66;100.00;55571.53;5143548;27;20049;-73
2023/08/15 02:48:14;;;;;;;11.95;9.10;;;;;;;-140.66;100.00;55571.53;5147624;27;20066;-72
2023/08/15 02:51:58;;;;;;;12.70;8.75;;;;;;;-140.66;100.00;55571.53;5144883;27;20023;-71
2023/08/15 02:55:42;;;;;;;12.82;8.40;;;;;;;-140.66;100.00;55571.53;5146813;27;20023;-72
2023/08/15 02:59:26;;;;;;;16.00;9.05;;;;;;;-140.66;100.00;55571.53;5146681;27;20464;-71
2023/08/15 03:03:11;;;;;;;13.20;8.63;;;;;;;-140.66;100.00;55571.53;5144141;27;20050;-72
2023/08/15 03:06:58;;;;;;;15.95;9.50;;;;;;;-140.66;100.00;55571.53;5148240;27;20038;-72
2023/08/15 03:10:43;;;;;;;12.93;8.45;;;;;;;-140.66;100.00;55571.53;5149345;27;20019;-70
2023/08/15 03:14:28;;;;;;;15.65;9.02;;;;;;;-140.66;100.00;55571.53;5143988;27;20437;-71
2023/08/15 03:18:12;;;;;;;11.82;7.93;;;;;;;-140.66;100.00;55571.53;5137318;27;20080;-72
2023/08/15 03:21:57;;;;;;;14.07;7.97;;;;;;;-140.66;100.00;55571.53;5138665;27;20115;-71
2023/08/15 03:25:42;;;;;;;12.05;7.93;;;;;;;-140.66;100.00;55571.53;5138455;27;20027;-71
2023/08/15 03:29:27;;;;;;;15.00;8.30;;;;;;;-140.66;100.00;55571.53;5138756;27;20346;-72
2023/08/15 03:33:11;;;;;;;10.48;8.13;;;;;;;-140.66;100.00;55571.53;5137837;27;20471;-72
2023/08/15 03:36:55;;;;;;;11.52;7.97;;;;;;;-140.66;100.00;55571.53;5137779;27;20114;-72
2023/08/15 03:40:39;;;;;;;10.65;8.23;;;;;;;-140.66;100.00;55571.53;5136678;27;20035;-72
2023/08/15 03:44:24;;;;;;;12.23;8.18;;;;;;;-140.66;100.00;55571.53;5136915;27;20079;-72
2023/08/15 03:48:08;;;;;;;12.95;7.72;;;;;;;-140.66;100.00;55571.53;5136939;27;20043;-72
2023/08/15 03:51:53;;;;;;;14.50;7.68;;;;;;;-140.66;100.00;55571.53;5137225;27;20365;-71
2023/08/15 03:55:37;;;;;;;11.23;8.18;;;;;;;-140.66;100.00;55571.53;5135861;27;20042;-72
2023/08/15 03:59:22;;;;;;;11.25;7.70;;;;;;;-140.66;100.00;55571.53;5135722;27;20110;-71
2023/08/15 04:03:06;;;;;;;10.63;7.63;;;;;;;-140.66;100.00;55571.53;5135226;27;20399;-72
2023/08/15 04:06:50;;;;;;;11.18;7.95;;;;;;;-140.66;100.00;55571.53;5136027;27;20037;-73
2023/08/15 04:10:39;;;;;;;11.30;7.53;;;;;;;-140.66;100.00;55571.53;5136745;27;20050;-72
2023/08/15 04:14:23;;;;;;;8.60;7.20;;;;;;;-140.66;100.00;55571.53;5136559;27;20102;-72
2023/08/15 04:18:08;;;;;;;10.68;7.22;;;;;;;-140.66;100.00;55571.53;5135959;27;20106;-72
2023/08/15 04:21:52;;;;;;;13.25;8.10;;;;;;;-140.66;100.00;55571.53;5135598;27;20052;-71
2023/08/15 04:25:37;;;;;;;13.23;7.32;;;;;;;-140.66;100.00;55571.53;5135872;27;20034;-71
2023/08/15 04:29:22;;;;;;;29.02;10.38;;;;;;;-140.66;100.00;55571.53;5135567;27;20042;-71
2023/08/15 04:33:07;;;;;;;24.23;10.15;;;;;;;-140.66;100.00;55571.53;5136505;27;20031;-72
2023/08/15 04:36:51;;;;;;;22.55;8.80;;;;;;;-140.66;100.00;55571.53;5137767;27;20107;-72
2023/08/15 04:40:43;;;;;;;15.00;8.00;;;;;;;-140.66;100.00;55571.53;5144929;27;20047;-72
2023/08/15 04:44:27;;;;;;;12.50;7.82;;;;;;;-140.66;100.00;55571.53;5135462;27;20023;-72
2023/08/15 04:48:12;;;;;;;13.15;8.20;;;;;;;-140.66;100.00;55571.53;5135147;27;20392;-71
2023/08/15 04:51:56;;;;;;;9.63;7.97;;;;;;;-140.66;100.00;55571.53;5135366;27;20105;-71
2023/08/15 04:55:41;;;;;;;12.43;8.52;;;;;;;-140.66;100.00;55571.53;5134604;27;20023;-72
2023/08/15 04:59:25;;;;;;;12.35;8.18;;;;;;;-140.66;100.00;55571.53;5138504;27;20023;-72
2023/08/15 05:03:09;;;;;;;11.40;8.98;;;;;;;-140.66;100.00;55571.53;5140301;27;20361;-71
2023/08/15 05:06:53;;;;;;;12.98;8.20;;;;;;;-140.66;100.00;55571.53;5142738;27;20019;-71
2023/08/15 05:10:37;;;;;;;14.32;9.23;;;;;;;-140.66;100.00;55571.53;5142839;27;20102;-70
2023/08/15 05:14:22;;;;;;;19.27;8.93;;;;;;;-140.66;100.00;55571.53;5141668;27;20030;-71
2023/08/15 05:18:06;;;;;;;14.93;9.70;;;;;;;-140.66;100.00;55571.53;5138622;27;20031;-71
2023/08/15 05:21:50;;;;;;;12.43;8.27;;;;;;;-140.66;100.00;55571.53;5135043;27;20448;-72
2023/08/15 05:25:35;;;;;;;17.98;9.27;;;;;;;-140.66;100.00;55571.53;5135584;27;20038;-72
2023/08/15 05:29:19;;;;;;;16.08;8.52;;;;;;;-140.66;100.00;55571.53;5134173;27;20414;-72
2023/08/15 05:33:03;;;;;;;15.75;8.60;;;;;;;-140.66;100.00;55571.53;5134884;27;20460;-73
2023/08/15 05:36:47;;;;;;;10.45;7.93;;;;;;;-140.66;100.00;55571.53;5134175;27;20449;-72
2023/08/15 05:40:33;;;;;;;16.88;8.60;;;;;;;-140.66;100.00;55571.53;5133982;28;20019;-71
2023/08/15 05:44:17;;;;;;;11.65;8.32;;;;;;;-140.66;100.00;55571.53;5133961;28;20027;-71
2023/08/15 05:48:01;;;;;;;13.13;8.68;;;;;;;-140.66;100.00;55571.53;5134382;28;20043;-71
2023/08/15 05:51:45;;;;;;;11.23;7.63;;;;;;;-140.66;100.00;55571.53;5134492;28;20042;-72
2023/08/15 05:55:30;;;;;;;13.50;7.95;;;;;;;-140.66;100.00;55571.53;5133840;28;20565;-71
2023/08/15 05:59:14;;;;;;;17.60;8.23;;;;;;;-140.66;100.00;55571.53;5133850;28;20031;-73
2023/08/15 06:02:58;;;;;;;11.07;8.55;;;;;;;-140.66;100.00;55571.53;5134030;28;20031;-74
2023/08/15 06:06:43;;;;;;;12.27;9.02;;;;;;;-140.66;100.00;55571.53;5134961;28;20444;-71
2023/08/15 06:10:27;;;;;;;13.43;8.82;;;;;;;-140.66;100.00;55571.53;5134507;28;20042;-71
2023/08/15 06:14:11;;;;;;;12.45;8.93;;;;;;;-140.66;100.00;55571.53;5134195;28;20055;-72
2023/08/15 06:17:55;;;;;;;14.60;8.98;;;;;;;-140.66;100.00;55571.53;5133435;28;20031;-72
2023/08/15 06:21:42;;;;;;;14.05;9.65;;;;;;;-140.66;100.00;55571.53;5135015;28;20436;-73
2023/08/15 06:25:27;;;;;;;15.50;11.50;;;;;;;-140.66;100.00;55571.53;5134690;28;20027;-72
2023/08/15 06:29:11;;;;;;;14.52;10.02;;;;;;;-140.66;100.00;55571.53;5137305;27;20139;-72
2023/08/15 06:32:56;;;;;;;12.27;9.70;;;;;;;-140.66;100.00;55571.53;5137757;27;20042;-71
2023/08/15 06:36:40;;;;;;;11.43;7.70;;;;;;;-140.66;100.00;55571.53;5137605;27;20066;-72
2023/08/15 06:40:25;;;;;;;12.32;8.20;;;;;;;-140.66;100.00;55571.53;5137468;27;20088;-71
2023/08/15 06:44:09;;;;;;;11.70;7.97;;;;;;;-140.66;100.00;55571.53;5137566;27;20027;-72
2023/08/15 06:47:53;;;;;;;12.18;7.90;;;;;;;-140.66;100.00;55571.53;5138135;27;20044;-72
2023/08/15 06:51:37;;;;;;;11.95;7.75;;;;;;;-140.66;100.00;55571.53;5139513;27;20107;-72
2023/08/15 06:55:22;;;;;;;19.48;8.85;;;;;;;-140.66;100.00;55571.53;5138138;27;20045;-73
2023/08/15 06:59:07;;;;;;;20.77;8.60;;;;;;;-140.66;100.00;55571.53;5138538;27;20015;-73
2023/08/15 07:02:51;;;;;;;9.98;7.95;;;;;;;-140.66;100.00;55571.53;5137122;27;20038;-73
2023/08/15 07:06:37;;;;;;;17.77;7.43;;;;;;;-140.66;100.00;55571.53;5137004;27;20035;-71
2023/08/15 07:10:21;;;;;;;13.27;7.43;;;;;;;-140.66;100.00;55571.53;5137321;27;20022;-72
2023/08/15 07:14:06;;;;;;;18.48;8.63;;;;;;;-140.66;100.00;55571.53;5137966;27;20476;-72
2023/08/15 07:17:50;;;;;;;18.05;9.45;;;;;;;-140.66;100.00;55571.53;5136697;27;20053;-72
2023/08/15 07:21:34;;;;;;;15.45;8.75;;;;;;;-140.66;100.00;55571.53;5136718;27;20023;-72
2023/08/15 07:25:18;;;;;;;33.35;13.23;;;;;;;-140.66;100.00;55571.53;5136541;27;20031;-72
2023/08/15 07:29:03;;;;;;;12.00;7.93;;;;;;;-140.66;100.00;55571.53;5137994;27;20019;-73
2023/08/15 07:32:47;;;;;;;11.20;7.07;;;;;;;-140.66;100.00;55571.53;5137781;27;20042;-72
2023/08/15 07:36:31;;;;;;;13.15;7.65;;;;;;;-140.66;100.00;55571.53;5136649;27;20453;-74
2023/08/15 07:40:20;;;;;;;22.73;7.82;;;;;;;-140.66;100.00;55571.53;5136379;27;20050;-73
2023/08/15 07:44:04;;;;;;;15.48;8.00;;;;;;;-140.66;100.00;55571.53;5136332;27;20035;-74
2023/08/15 07:47:51;;;;;;;11.38;7.53;;;;;;;-140.66;100.00;55571.53;5135776;27;20374;-72
2023/08/15 07:51:36;;;;;;;12.68;7.30;;;;;;;-140.66;100.00;55571.53;5136010;27;20034;-72
2023/08/15 07:55:21;;;;;;;10.65;6.43;;;;;;;-140.66;100.00;55571.53;5136264;27;20027;-72
2023/08/15 07:59:05;;;;;;;11.02;7.32;;;;;;;-140.66;100.00;55571.53;5135103;27;20023;-73
2023/08/15 08:02:50;;;;;;;9.25;6.80;;;;;;;-140.66;100.00;55571.53;5136348;27;20436;-74
2023/08/15 08:06:34;;;;;;;10.43;7.00;;;;;;;-140.66;100.00;55571.53;5135927;27;20035;-72
2023/08/15 08:10:18;;;;;;;13.35;7.10;;;;;;;-140.66;100.00;55571.53;5136646;27;20031;-72
2023/08/15 08:14:03;;;;;;;18.73;7.13;;;;;;;-140.66;100.00;55571.53;5135938;27;20128;-72
2023/08/15 08:17:47;;;;;;;14.55;7.25;;;;;;;-140.66;100.00;55571.53;5135729;27;20019;-73
2023/08/15 08:21:33;;;;;;;17.38;7.55;;;;;;;-140.66;100.00;55571.53;5135554;27;20037;-72
2023/08/15 08:25:19;;;;;;;14.48;7.47;;;;;;;-140.66;100.00;55571.53;5136074;27;20101;-73
2023/08/15 08:29:03;;;;;;;11.77;7.40;;;;;;;-140.66;100.00;55571.53;5135466;27;20083;-72
2023/08/15 08:32:48;;;;;;;10.00;7.57;;;;;;;-140.66;100.00;55571.53;5135645;27;20485;-74
2023/08/15 08:36:32;;;;;;;10.02;6.82;;;;;;;-140.66;100.00;55571.53;5136295;27;20363;-72
2023/08/15 08:40:17;;;;;;;30.77;8.60;;;;;;;-140.66;100.00;55571.53;5137308;27;20031;-73
2023/08/15 08:44:02;;;;;;;12.88;7.47;;;;;;;-140.66;100.00;55571.53;5137248;27;20023;-73
2023/08/15 08:47:47;;;;;;;13.13;7.50;;;;;;;-140.66;100.00;55571.53;5134519;27;20054;-73
2023/08/15 08:51:32;;;;;;;17.67;7.18;;;;;;;-140.66;100.00;55571.53;5136188;27;20046;-73
2023/08/15 08:55:22;;;;;;;10.57;7.10;;;;;;;-140.66;100.00;55571.53;5129404;27;20099;-73
2023/08/15 08:59:11;;;;;;;12.02;7.05;;;;;;;-140.66;100.00;55571.53;5135229;27;20025;-72
2023/08/15 09:02:56;;;;;;;12.77;8.00;;;;;;;-140.66;100.00;55571.53;5136084;27;20119;-74
2023/08/15 09:06:41;;;;;;;11.55;7.53;;;;;;;-140.66;100.00;55571.53;5135679;27;20372;-73
2023/08/15 09:10:25;;;;;;;11.15;7.10;;;;;;;-140.66;100.00;55571.53;5134447;27;20118;-73
2023/08/15 09:14:27;;;;;;;15.50;7.85;;;;;;;-140.66;100.00;55571.53;5136961;27;20023;-73
2023/08/15 09:18:11;;;;;;;11.77;7.38;;;;;;;-140.66;100.00;55571.53;5134170;27;20449;-72
2023/08/15 09:21:55;;;;;;;11.40;7.03;;;;;;;-140.66;100.00;55571.53;5134646;27;20472;-73
2023/08/15 09:25:41;;;;;;;13.57;8.13;;;;;;;-140.66;100.00;55571.53;5135171;27;20030;-72
2023/08/15 09:29:26;;;;;;;16.98;7.28;;;;;;;-140.66;100.00;55571.53;5135668;27;20038;-73
2023/08/15 09:33:13;;;;;;;11.95;8.07;;;;;;;-140.66;100.00;55571.53;5135401;27;20031;-74
2023/08/15 09:36:58;;;;;;;13.07;7.82;;;;;;;-140.66;100.00;55571.53;5134269;27;20023;-73
2023/08/15 09:40:44;;;;;;;9.10;7.50;;;;;;;-140.66;100.00;55571.53;5135828;28;20042;-72
2023/08/15 09:44:30;;;;;;;9.65;7.40;;;;;;;-140.66;100.00;55571.53;5135183;28;20023;-73
2023/08/15 09:48:19;;;;;;;13.63;7.97;;;;;;;-140.66;100.00;55571.53;5120300;28;20047;-72
2023/08/15 09:52:06;;;;;;;8.60;7.60;;;;;;;-140.66;100.00;55571.53;5135329;28;20102;-72
2023/08/15 09:55:51;;;;;;;11.02;7.40;;;;;;;-140.66;100.00;55571.53;5136634;28;20027;-72
2023/08/15 09:59:36;;;;;;;10.82;7.45;;;;;;;-140.66;100.00;55571.53;5134827;28;20466;-73
2023/08/15 10:03:23;;;;;;;12.13;7.80;;;;;;;-140.66;100.00;55571.53;5141228;27;20053;-73
2023/08/15 10:07:08;;;;;;;13.52;7.30;;;;;;;-140.66;100.00;55571.53;5138372;27;20125;-72
2023/08/15 10:10:57;;;;;;;17.02;8.27;;;;;;;-140.66;100.00;55571.53;5138271;27;20026;-74
2023/08/15 10:14:44;;;;;;;13.55;7.95;;;;;;;-140.66;100.00;55571.53;5138684;27;20061;-73
2023/08/15 10:18:28;;;;;;;16.15;8.10;;;;;;;-140.66;100.00;55571.53;5137687;27;20023;-72
2023/08/15 10:22:16;;;;;;;13.18;8.40;;;;;;;-140.66;100.00;55571.53;5137751;27;20027;-72
2023/08/15 10:26:21;;;;;;;10.23;7.10;;;;;;;-140.66;100.00;55571.53;5138541;27;20088;-72
2023/08/15 10:30:06;;;;;;;11.88;7.20;;;;;;;-140.66;100.00;55571.53;5139002;27;20038;-73
2023/08/15 10:33:50;;;;;;;14.65;7.40;;;;;;;-140.66;100.00;55571.53;5137745;27;20030;-73
2023/08/15 10:37:41;;;;;;;10.68;7.63;;;;;;;-140.66;100.00;55571.53;5137470;27;20041;-74
2023/08/15 10:41:37;;;;;;;16.65;7.40;;;;;;;-140.66;100.00;55571.53;5138942;27;20023;-73
2023/08/15 10:45:36;;;;;;;7.90;6.63;;;;;;;-140.66;100.00;55571.53;5138642;27;20460;-73
2023/08/15 10:49:45;;;;;;;10.20;7.10;;;;;;;-140.66;100.00;55571.53;5136766;27;20047;-73
2023/08/15 10:53:32;;;;;;;12.63;7.20;;;;;;;-140.66;100.00;55571.53;5138996;27;20056;-74
2023/08/15 10:57:20;;;;;;;17.30;7.20;;;;;;;-140.66;100.00;55571.53;5138731;27;20027;-74
2023/08/15 11:01:05;;;;;;;10.77;7.00;;;;;;;-140.66;100.00;55571.53;5139318;27;20027;-75
2023/08/15 11:04:58;;;;;;;12.20;6.53;;;;;;;-140.66;100.00;55571.53;5137937;27;20118;-74
2023/08/15 11:08:43;;;;;;;10.40;6.43;;;;;;;-140.66;100.00;55571.53;5137352;27;20367;-73
2023/08/15 11:12:30;;;;;;;22.45;7.03;;;;;;;-140.66;100.00;55571.53;5136408;27;20027;-73
2023/08/15 11:16:15;;;;;;;21.70;6.90;;;;;;;-140.66;100.00;55571.53;5137053;27;20034;-73
2023/08/15 11:20:00;;;;;;;18.95;7.10;;;;;;;-140.66;100.00;55571.53;5137175;27;20106;-72
2023/08/15 11:23:54;;;;;;;25.90;7.90;;;;;;;-140.66;100.00;55571.53;5137068;27;20034;-73
2023/08/15 11:27:45;;;;;;;19.80;7.68;;;;;;;-140.66;100.00;55571.53;5137989;27;20432;-73
2023/08/15 11:31:30;;;;;;;20.13;6.80;;;;;;;-140.66;100.00;55571.53;5137777;27;20444;-74
2023/08/15 11:35:16;;;;;;;15.13;7.20;;;;;;;-140.66;100.00;55571.53;5137939;27;20036;-73
2023/08/15 11:39:01;;;;;;;19.38;7.28;;;;;;;-140.66;100.00;55571.53;5138158;27;20023;-72
2023/08/15 11:42:48;;;;;;;26.40;7.30;;;;;;;-140.66;100.00;55571.53;5138763;27;20148;-73
2023/08/15 11:46:37;;;;;;;10.80;6.90;;;;;;;-140.66;100.00;55571.53;5137341;27;20035;-74
2023/08/15 11:50:27;;;;;;;20.25;7.28;;;;;;;-140.66;100.00;55571.53;5136893;27;20354;-73
2023/08/15 11:54:36;;;;;;;18.20;7.88;;;;;;;-140.66;100.00;55571.53;5137330;27;20027;-73
2023/08/15 11:58:32;;;;;;;13.77;7.25;;;;;;;-140.66;100.00;55571.53;5137356;27;20508;-72
2023/08/15 12:02:17;;;;;;;15.50;7.22;;;;;;;-140.66;100.00;55571.53;5136367;27;20035;-72
2023/08/15 12:06:12;;;;;;;20.13;8.00;;;;;;;-140.66;100.00;55571.53;5135695;27;20031;-73
2023/08/15 12:09:57;;;;;;;32.90;8.30;;;;;;;-140.66;100.00;55571.53;5136034;27;20037;-73
2023/08/15 12:13:42;;;;;;;16.33;7.30;;;;;;;-140.66;100.00;55571.53;5135684;27;20428;-72
2023/08/15 12:17:27;;;;;;;10.82;7.10;;;;;;;-140.66;100.00;55571.53;5136007;27;20058;-73
2023/08/15 12:21:12;;;;;;;13.43;6.95;;;;;;;-140.66;100.00;55571.53;5136745;27;20034;-74
2023/08/15 12:24:56;;;;;;;22.88;7.43;;;;;;;-140.66;100.00;55571.53;5136244;27;20022;-73
2023/08/15 12:28:41;;;;;;;13.52;7.30;;;;;;;-140.66;100.00;55571.53;5137460;27;20030;-72
2023/08/15 12:32:28;;;;;;;11.77;6.80;;;;;;;-140.66;100.00;55571.53;5136049;27;20030;-74
2023/08/15 12:36:12;;;;;;;14.07;6.50;;;;;;;-140.66;100.00;55571.53;5135911;27;20447;-74
2023/08/15 12:40:02;;;;;;;15.95;7.00;;;;;;;-140.66;100.00;55571.53;5135788;27;20027;-73
2023/08/15 12:43:46;;;;;;;25.35;7.32;;;;;;;-140.66;100.00;55571.53;5135637;27;20041;-73
2023/08/15 12:47:30;;;;;;;17.65;6.40;;;;;;;-140.66;100.00;55571.53;5136424;27;20051;-72
2023/08/15 12:51:15;;;;;;;54.20;9.02;;;;;;;-140.66;100.00;55571.53;5134907;27;20164;-73
2023/08/15 12:54:59;;;;;;;12.40;7.07;;;;;;;-140.66;100.00;55571.53;5136431;27;20019;-73
2023/08/15 12:58:43;;;;;;;18.30;7.13;;;;;;;-140.66;100.00;55571.53;5134700;27;20077;-73
2023/08/15 13:02:28;;;;;;;10.85;6.43;;;;;;;-140.66;100.00;55571.53;5135477;27;20102;-73
2023/08/15 13:06:12;;;;;;;19.48;7.40;;;;;;;-140.66;100.00;55571.53;5134693;27;20440;-73
2023/08/15 13:09:56;;;;;;;18.50;7.78;;;;;;;-140.66;100.00;55571.53;5137473;27;20043;-72
2023/08/15 13:13:43;;;;;;;15.85;6.97;;;;;;;-140.66;100.00;55571.53;5135828;27;20115;-74
2023/08/15 13:17:28;;;;;;;13.07;6.93;;;;;;;-140.66;100.00;55571.53;5134407;27;20479;-72
2023/08/15 13:21:13;;;;;;;14.55;7.35;;;;;;;-140.66;100.00;55571.53;5139063;27;20038;-73
2023/08/15 13:24:57;;;;;;;13.85;6.35;;;;;;;-140.66;100.00;55571.53;5137356;27;20110;-73
2023/08/15 13:28:41;;;;;;;15.30;7.53;;;;;;;-140.66;100.00;55571.53;5134645;27;20027;-75
2023/08/15 13:32:25;;;;;;;14.15;8.05;;;;;;;-140.66;100.00;55571.53;5134375;27;20035;-73
2023/08/15 13:36:10;;;;;;;14.25;7.80;;;;;;;-140.66;100.00;55571.53;5135130;27;20360;-73
2023/08/15 13:39:57;;;;;;;11.63;7.38;;;;;;;-140.66;100.00;55571.53;5135011;27;20087;-73
2023/08/15 13:43:41;;;;;;;17.55;7.28;;;;;;;-140.66;100.00;55571.53;5134458;28;20031;-73
2023/08/15 13:47:26;;;;;;;17.30;8.43;;;;;;;-140.66;100.00;55571.53;5134333;28;20388;-74
2023/08/15 13:51:16;;;;;;;16.27;9.35;;;;;;;-140.66;100.00;55571.53;5133916;28;20019;-73
2023/08/15 13:55:01;;;;;;;19.05;9.15;;;;;;;-140.66;100.00;55571.53;5134991;28;20106;-72
2023/08/15 13:58:45;;;;;;;15.57;8.40;;;;;;;-140.66;100.00;55571.53;5134759;28;20030;-72
2023/08/15 14:02:29;;;;;;;21.40;8.90;;;;;;;-140.66;100.00;55571.53;5134473;28;20497;-72
2023/08/15 14:06:14;;;;;;;17.90;7.70;;;;;;;-140.66;100.00;55571.53;5133771;28;20027;-73
2023/08/15 14:09:58;;;;;;;17.10;8.02;;;;;;;-140.66;100.00;55571.53;5134099;28;20449;-73
2023/08/15 14:13:42;;;;;;;20.83;8.95;;;;;;;-140.66;100.00;55571.53;5134379;28;20031;-72
2023/08/15 14:17:26;;;;;;;15.82;7.55;;;;;;;-140.66;100.00;55571.53;5134866;28;20019;-72
2023/08/15 14:21:11;;;;;;;18.77;8.63;;;;;;;-140.66;100.00;55571.53;5134366;28;20019;-72
2023/08/15 14:24:55;;;;;;;19.52;8.02;;;;;;;-140.66;100.00;55571.53;5133844;28;20034;-72
2023/08/15 14:28:39;;;;;;;16.83;7.43;;;;;;;-140.66;100.00;55571.53;5134302;28;20039;-72
2023/08/15 14:32:23;;;;;;;17.35;8.02;;;;;;;-140.66;100.00;55571.53;5135166;28;20109;-72
2023/08/15 14:36:08;;;;;;;11.30;7.30;;;;;;;-140.66;100.00;55571.53;5134710;28;20027;-73
2023/08/15 14:39:52;;;;;;;11.98;8.05;;;;;;;-140.66;100.00;55571.53;5134656;28;20058;-72
2023/08/15 14:43:36;;;;;;;11.00;7.93;;;;;;;-140.66;100.00;55571.53;5133779;28;20054;-72
2023/08/15 14:47:30;;;;;;;14.48;7.70;;;;;;;-140.66;100.00;55571.53;5133068;27;20113;-72
2023/08/15 14:51:15;;;;;;;15.40;8.18;;;;;;;-140.66;100.00;55571.53;5137563;27;20039;-72
2023/08/15 14:54:59;;;;;;;14.00;8.00;;;;;;;-140.66;100.00;55571.53;5137322;27;20464;-73
2023/08/15 14:58:43;;;;;;;14.70;7.88;;;;;;;-140.66;100.00;55571.53;5137430;27;20106;-72
2023/08/15 15:02:30;;;;;;;13.93;7.60;;;;;;;-140.66;100.00;55571.53;5136569;27;20054;-72
2023/08/15 15:06:17;;;;;;;15.70;8.30;;;;;;;-140.66;100.00;55571.53;5138586;27;20063;-73
2023/08/15 15:10:02;;;;;;;12.55;7.72;;;;;;;-140.66;100.00;55571.53;5136312;27;20357;-74
2023/08/15 15:13:46;;;;;;;11.57;7.65;;;;;;;-140.66;100.00;55571.53;5137260;27;20033;-72
2023/08/15 15:17:30;;;;;;;15.32;8.10;;;;;;;-140.66;100.00;55571.53;5136928;27;20027;-73
2023/08/15 15:21:14;;;;;;;11.48;7.10;;;;;;;-140.66;100.00;55571.53;5136834;27;20348;-72
2023/08/15 15:24:59;;;;;;;17.08;7.95;;;;;;;-140.66;100.00;55571.53;5136375;27;20360;-73
2023/08/15 15:28:43;;;;;;;13.00;7.80;;;;;;;-140.66;100.00;55571.53;5136474;27;20087;-72
2023/08/15 15:32:27;;;;;;;15.48;7.40;;;;;;;-140.66;100.00;55571.53;5137418;27;20035;-73
2023/08/15 15:36:11;;;;;;;19.60;7.60;;;;;;;-140.66;100.00;55571.53;5137479;27;20058;-72
2023/08/15 15:39:56;;;;;;;11.60;7.50;;;;;;;-140.66;100.00;55571.53;5137137;27;20031;-71
2023/08/15 15:43:42;;;;;;;16.10;7.35;;;;;;;-140.66;100.00;55571.53;5137330;27;20042;-72
2023/08/15 15:47:26;;;;;;;18.23;7.40;;;;;;;-140.66;100.00;55571.53;5136097;27;20062;-72
2023/08/15 15:51:12;;;;;;;11.90;7.40;;;;;;;-140.66;100.00;55571.53;5137162;27;20118;-72
2023/08/15 15:54:56;;;;;;;10.52;7.47;;;;;;;-140.66;100.00;55571.53;5137818;27;20037;-73
2023/08/15 15:58:40;;;;;;;14.38;7.28;;;;;;;-140.66;100.00;55571.53;5137176;27;20046;-72
2023/08/15 16:02:25;;;;;;;12.80;7.50;;;;;;;-140.66;100.00;55571.53;5120982;27;20023;-72
2023/08/15 16:06:09;;;;;;;13.18;7.30;;;;;;;-140.66;100.00;55571.53;5135789;27;20445;-73
2023/08/15 16:09:54;;;;;;;9.45;7.20;;;;;;;-140.66;100.00;55571.53;5137193;27;20364;-75
2023/08/15 16:13:38;;;;;;;11.05;6.90;;;;;;;-140.66;100.00;55571.53;5135998;27;20030;-73
2023/08/15 16:17:23;;;;;;;13.70;7.60;;;;;;;-140.66;100.00;55571.53;5136008;27;20472;-72
2023/08/15 16:21:07;;;;;;;14.05;7.40;;;;;;;-140.66;100.00;55571.53;5136996;27;20042;-72
2023/08/15 16:24:51;;;;;;;11.10;7.18;;;;;;;-140.66;100.00;55571.53;5135489;27;20031;-72
2023/08/15 16:28:36;;;;;;;11.57;6.93;;;;;;;-140.66;100.00;55571.53;5135942;27;20031;-75
2023/08/15 16:32:20;;;;;;;9.95;7.03;;;;;;;-140.66;100.00;55571.53;5135759;27;20114;-73
2023/08/15 16:36:05;;;;;;;12.80;7.90;;;;;;;-140.66;100.00;55571.53;5135673;27;20050;-73
2023/08/15 16:39:49;;;;;;;11.10;7.50;;;;;;;-140.66;100.00;55571.53;5135114;27;20398;-72
2023/08/15 16:43:35;;;;;;;12.65;7.53;;;;;;;-140.66;100.00;55571.53;5135034;27;20034;-73
2023/08/15 16:47:20;;;;;;;12.15;7.20;;;;;;;-140.66;100.00;55571.53;5135283;27;20102;-73
2023/08/15 16:51:05;;;;;;;9.95;6.95;;;;;;;-140.66;100.00;55571.53;5135231;27;20091;-73
2023/08/15 16:54:50;;;;;;;11.77;8.10;;;;;;;-140.66;100.00;55571.53;5135248;27;20106;-73